Time;durP1;ratioP1;P1;durP2;ratioP2;P2;SDS_P1;SDS_P2;PMS_P1;PMS_P2;Temp;Humidity;BMP_temperature;BMP_pressure;BME280_temperature;BME280_humidity;BME280_pressure;Samples;Min_cycle;Max_cycle;Signal;HPM_P1;HPM_P2
2023/01/15 17:40:06;;;;;;;;;;;;;;;;;;465517;19;263192969;31
2023/01/15 17:42:31;;;;;;;0.23;0.23;;;;;;;;;;7379580;19;20157;-60
2023/01/15 17:44:56;;;;;;;0.60;0.60;;;;;;;;;;7372520;19;20145;-61
2023/01/15 17:47:22;;;;;;;0.20;0.20;;;;;;;;;;7361074;19;20591;-60
2023/01/15 17:49:47;;;;;;;0.40;0.40;;;;;;;;;;7380125;19;20177;-60
2023/01/15 17:52:17;;;;;;;0.20;0.20;;;;;;;;;;7384742;19;20125;-60
2023/01/15 18:05:40;;;;;;;0.20;0.20;;;;;;;;;;7382562;19;20149;-60
2023/01/15 18:08:06;;;;;;;0.30;0.30;;;;;;;;;;7375157;19;20663;-60
2023/01/15 18:10:32;;;;;;;0.40;0.40;;;;;;;;;;7362454;19;20216;-60
2023/01/15 18:13:00;;;;;;;0.20;0.20;;;;;;;;;;7376732;19;20151;-60
2023/01/15 18:15:25;;;;;;;0.30;0.30;;;;;;;;;;7369765;19;20149;-60
2023/01/15 18:17:51;;;;;;;0.30;0.30;;;;;;;;;;7374695;19;20125;-60
2023/01/15 18:20:16;;;;;;;0.47;0.47;;;;;;;;;;7366462;19;20505;-60
2023/01/15 18:22:41;;;;;;;0.93;0.40;;;;;;;;;;7365858;19;20131;-60
2023/01/15 18:25:09;;;;;;;0.40;0.40;;;;;;;;;;7382164;19;20548;-60
2023/01/15 18:27:36;;;;;;;0.40;0.40;;;;;;;;;;7379661;19;20125;-60
2023/01/15 18:30:02;;;;;;;0.50;0.50;;;;;;;;;;7360232;19;20137;-60
2023/01/15 18:32:29;;;;;;;0.57;0.57;;;;;;;;;;7370867;19;20141;-60
2023/01/15 18:34:54;;;;;;;0.90;0.83;;;;;;;;;;7374748;19;20140;-60
2023/01/15 18:37:20;;;;;;;0.50;0.50;;;;;;;;;;7367779;19;20160;-60
2023/01/15 18:39:45;;;;;;;0.70;0.70;;;;;;;;;;7373250;19;20117;-60
2023/01/15 18:47:19;;;;;;;0.30;0.30;;;;;;;;;;7377457;19;20190;-60
2023/01/15 18:49:45;;;;;;;0.20;0.20;;;;;;;;;;7374560;19;20121;-60
2023/01/15 18:54:57;;;;;;;0.63;0.50;;;;;;;;;;7363481;19;20528;-60
2023/01/15 18:57:23;;;;;;;0.30;0.30;;;;;;;;;;7366704;19;20546;-60
2023/01/15 18:59:48;;;;;;;0.40;0.40;;;;;;;;;;7356878;19;20113;-60
2023/01/15 19:02:18;;;;;;;0.30;0.30;;;;;;;;;;7366169;19;20129;-60
2023/01/15 19:04:44;;;;;;;0.50;0.50;;;;;;;;;;7364017;19;20623;-60
2023/01/15 19:07:10;;;;;;;0.30;0.30;;;;;;;;;;7363845;19;21526;-60
2023/01/15 19:09:36;;;;;;;0.40;0.40;;;;;;;;;;7348154;19;20225;-60
2023/01/15 19:12:02;;;;;;;0.30;0.30;;;;;;;;;;7370448;19;20762;-60
2023/01/15 19:20:02;;;;;;;0.83;0.77;;;;;;;;;;7373825;19;20142;-60
2023/01/15 19:25:11;;;;;;;0.20;0.20;;;;;;;;;;7383175;19;20183;-61
2023/01/15 19:27:37;;;;;;;0.30;0.30;;;;;;;;;;7381694;19;20133;-60
2023/01/15 19:30:05;;;;;;;0.30;0.30;;;;;;;;;;7385699;19;21430;-60
2023/01/15 19:32:31;;;;;;;0.60;0.50;;;;;;;;;;7384816;19;20485;-61
2023/01/15 19:34:58;;;;;;;0.90;0.40;;;;;;;;;;7380456;19;20153;-60
2023/01/15 19:37:25;;;;;;;0.30;0.30;;;;;;;;;;7380555;19;20140;-60
2023/01/15 19:39:50;;;;;;;0.50;0.50;;;;;;;;;;7390061;19;20121;-61
2023/01/15 19:50:38;;;;;;;0.40;0.40;;;;;;;;;;7389205;19;20128;-60
2023/01/15 19:53:05;;;;;;;1.00;0.47;;;;;;;;;;7382486;19;20138;-60
2023/01/15 19:55:31;;;;;;;0.20;0.20;;;;;;;;;;7380029;19;20134;-61
2023/01/15 19:58:02;;;;;;;0.30;0.30;;;;;;;;;;7386770;19;20591;-60
2023/01/15 20:00:28;;;;;;;0.43;0.43;;;;;;;;;;7387448;19;20132;-60
2023/01/15 20:02:53;;;;;;;0.40;0.40;;;;;;;;;;7383866;19;20140;-60
2023/01/15 20:05:19;;;;;;;1.40;0.63;;;;;;;;;;7369567;19;20149;-60
2023/01/15 20:07:45;;;;;;;0.40;0.40;;;;;;;;;;7364508;19;21329;-60
2023/01/15 20:10:16;;;;;;;0.43;0.43;;;;;;;;;;7372587;19;20149;-60
2023/01/15 20:15:27;;;;;;;0.30;0.30;;;;;;;;;;7385363;19;20144;-61
2023/01/15 20:17:53;;;;;;;0.50;0.50;;;;;;;;;;7389621;19;20141;-61
2023/01/15 20:20:19;;;;;;;0.20;0.20;;;;;;;;;;7383163;19;20125;-64
2023/01/15 20:22:44;;;;;;;0.30;0.30;;;;;;;;;;7384593;19;20587;-61
2023/01/15 20:25:09;;;;;;;0.30;0.30;;;;;;;;;;7379436;19;20149;-60
2023/01/15 20:27:37;;;;;;;0.67;0.67;;;;;;;;;;7370068;19;20132;-60
2023/01/15 20:30:07;;;;;;;0.30;0.30;;;;;;;;;;7372689;19;20182;-62
2023/01/15 20:32:33;;;;;;;0.30;0.30;;;;;;;;;;7388365;19;20128;-61
2023/01/15 20:34:58;;;;;;;0.30;0.30;;;;;;;;;;7385295;19;20156;-61
2023/01/15 20:37:23;;;;;;;0.30;0.30;;;;;;;;;;7388115;19;20129;-61
2023/01/15 20:39:49;;;;;;;0.93;0.83;;;;;;;;;;7386943;19;20156;-61
2023/01/15 20:45:01;;;;;;;0.77;0.77;;;;;;;;;;7385814;19;20151;-61
2023/01/15 20:50:34;;;;;;;0.30;0.30;;;;;;;;;;7384848;19;20505;-61
2023/01/15 20:53:00;;;;;;;0.30;0.30;;;;;;;;;;7379607;19;20636;-61
2023/01/15 20:55:32;;;;;;;0.30;0.30;;;;;;;;;;7388361;19;20124;-61
2023/01/15 20:57:57;;;;;;;0.37;0.37;;;;;;;;;;7388342;19;20129;-61
2023/01/15 21:00:23;;;;;;;0.20;0.20;;;;;;;;;;7387817;19;20129;-61
2023/01/15 21:02:48;;;;;;;0.50;0.50;;;;;;;;;;7386932;19;20121;-61
2023/01/15 21:05:14;;;;;;;0.40;0.40;;;;;;;;;;7389545;19;20145;-61
2023/01/15 21:07:39;;;;;;;0.60;0.60;;;;;;;;;;7391572;19;20125;-61
2023/01/15 21:10:07;;;;;;;0.20;0.20;;;;;;;;;;7383522;19;20200;-61
2023/01/15 21:12:32;;;;;;;0.30;0.30;;;;;;;;;;7388244;19;20148;-61
2023/01/15 21:14:58;;;;;;;0.20;0.20;;;;;;;;;;7385451;19;20140;-61
2023/01/15 21:17:23;;;;;;;0.37;0.37;;;;;;;;;;7388265;19;20471;-61
2023/01/15 21:19:48;;;;;;;0.40;0.37;;;;;;;;;;7383981;19;20284;-61
2023/01/15 21:22:14;;;;;;;0.20;0.20;;;;;;;;;;7390219;19;20137;-62
2023/01/15 21:24:39;;;;;;;0.20;0.20;;;;;;;;;;7387512;19;20154;-61
2023/01/15 21:27:04;;;;;;;0.27;0.27;;;;;;;;;;7388072;19;20120;-61
2023/01/15 21:29:30;;;;;;;0.40;0.40;;;;;;;;;;7377256;19;20724;-61
2023/01/15 21:31:55;;;;;;;0.30;0.30;;;;;;;;;;7384823;19;20117;-61
2023/01/15 21:34:21;;;;;;;0.30;0.30;;;;;;;;;;7383549;19;20148;-61
2023/01/15 21:36:46;;;;;;;0.30;0.30;;;;;;;;;;7375582;19;20109;-61
2023/01/15 21:39:13;;;;;;;0.20;0.20;;;;;;;;;;7383791;19;20157;-61
2023/01/15 21:44:41;;;;;;;7.63;0.60;;;;;;;;;;7385638;19;20155;-61
2023/01/15 21:47:09;;;;;;;0.30;0.30;;;;;;;;;;7388938;19;20120;-61
2023/01/15 21:49:34;;;;;;;0.30;0.30;;;;;;;;;;7388144;19;20140;-62
2023/01/15 21:52:00;;;;;;;0.53;0.50;;;;;;;;;;7387890;19;20125;-61
2023/01/15 21:54:26;;;;;;;0.50;0.50;;;;;;;;;;7383033;19;20496;-61
2023/01/15 21:56:52;;;;;;;0.30;0.30;;;;;;;;;;7376008;19;20145;-62
2023/01/15 21:59:18;;;;;;;0.30;0.30;;;;;;;;;;7387151;19;20125;-61
2023/01/15 22:01:43;;;;;;;0.30;0.30;;;;;;;;;;7387735;19;20120;-62
2023/01/15 22:04:08;;;;;;;0.50;0.50;;;;;;;;;;7386224;19;20238;-61
2023/01/15 22:06:34;;;;;;;0.30;0.30;;;;;;;;;;7384581;19;20530;-61
2023/01/15 22:08:59;;;;;;;0.30;0.30;;;;;;;;;;7389842;19;20492;-61
2023/01/15 22:11:42;;;;;;;0.30;0.30;;;;;;;;;;7389090;19;20117;-61
2023/01/15 22:14:23;;;;;;;0.37;0.37;;;;;;;;;;7389462;19;20156;-62
2023/01/15 22:16:52;;;;;;;0.30;0.30;;;;;;;;;;7389181;19;20120;-62
2023/01/15 22:19:19;;;;;;;0.30;0.30;;;;;;;;;;7386556;19;20142;-61
2023/01/15 22:21:47;;;;;;;0.50;0.50;;;;;;;;;;7387192;19;20149;-61
2023/01/15 22:24:12;;;;;;;0.50;0.50;;;;;;;;;;7381454;19;20172;-62
2023/01/15 22:26:41;;;;;;;0.20;0.20;;;;;;;;;;7386152;19;20130;-61
2023/01/15 22:29:08;;;;;;;0.20;0.20;;;;;;;;;;7384790;19;20585;-61
2023/01/15 22:31:34;;;;;;;0.40;0.40;;;;;;;;;;7385353;19;20120;-62
2023/01/15 22:33:59;;;;;;;0.53;0.53;;;;;;;;;;7385167;19;20166;-62
2023/01/15 22:36:25;;;;;;;0.40;0.40;;;;;;;;;;7384240;19;20611;-61
2023/01/15 22:38:51;;;;;;;0.50;0.43;;;;;;;;;;7382302;19;20125;-62
2023/01/15 22:42:23;;;;;;;0.30;0.30;;;;;;;;;;7384556;19;20120;-61
2023/01/15 22:44:06;;;;;;;0.50;0.50;;;;;;;;;;7384979;19;20161;-62
2023/01/15 22:46:32;;;;;;;0.20;0.20;;;;;;;;;;7387040;19;20156;-61
2023/01/15 22:48:57;;;;;;;0.60;0.60;;;;;;;;;;7391685;19;20508;-62
2023/01/15 22:51:22;;;;;;;0.23;0.23;;;;;;;;;;7391907;19;20612;-62
2023/01/15 22:53:48;;;;;;;0.33;0.33;;;;;;;;;;7385557;19;20178;-61
2023/01/15 22:56:13;;;;;;;0.40;0.40;;;;;;;;;;7389534;19;20120;-61
2023/01/15 22:58:41;;;;;;;0.30;0.30;;;;;;;;;;7388872;19;20117;-61
2023/01/15 23:01:07;;;;;;;0.20;0.20;;;;;;;;;;7393894;19;20237;-61
2023/01/15 23:03:36;;;;;;;0.30;0.30;;;;;;;;;;7390108;19;20156;-61
2023/01/15 23:06:06;;;;;;;0.40;0.40;;;;;;;;;;7392365;19;20123;-61
2023/01/15 23:08:35;;;;;;;0.20;0.20;;;;;;;;;;7390307;19;20442;-61
2023/01/15 23:11:12;;;;;;;0.27;0.27;;;;;;;;;;7373406;19;20128;-61
2023/01/15 23:13:38;;;;;;;0.43;0.43;;;;;;;;;;7383292;19;20176;-61
2023/01/15 23:16:04;;;;;;;0.30;0.30;;;;;;;;;;7385709;19;20121;-61
2023/01/15 23:18:31;;;;;;;0.50;0.50;;;;;;;;;;7382953;19;20147;-61
2023/01/15 23:20:56;;;;;;;0.30;0.30;;;;;;;;;;7391951;19;20124;-62
2023/01/15 23:23:22;;;;;;;0.30;0.30;;;;;;;;;;7389149;19;20230;-62
2023/01/15 23:25:48;;;;;;;0.57;0.57;;;;;;;;;;7387385;19;20587;-62
2023/01/15 23:28:14;;;;;;;0.77;0.50;;;;;;;;;;7389940;19;20125;-61
2023/01/15 23:30:39;;;;;;;0.30;0.30;;;;;;;;;;7385314;19;20121;-62
2023/01/15 23:33:04;;;;;;;0.33;0.33;;;;;;;;;;7381595;19;20129;-61
2023/01/15 23:35:30;;;;;;;0.30;0.30;;;;;;;;;;7387822;19;20125;-62
2023/01/15 23:37:55;;;;;;;0.50;0.50;;;;;;;;;;7390430;19;20152;-61
2023/01/15 23:40:20;;;;;;;0.77;0.77;;;;;;;;;;7382824;19;20113;-62
2023/01/15 23:48:13;;;;;;;0.40;0.40;;;;;;;;;;7393337;19;20146;-61
2023/01/15 23:50:38;;;;;;;0.27;0.27;;;;;;;;;;7390306;19;20133;-61
2023/01/15 23:53:04;;;;;;;0.30;0.30;;;;;;;;;;7389709;19;20121;-62
2023/01/15 23:55:29;;;;;;;0.20;0.20;;;;;;;;;;7388340;19;20117;-61
2023/01/15 23:57:54;;;;;;;0.23;0.23;;;;;;;;;;7392222;19;20581;-61
